sensor_id;sensor_type;location;lat;lon;timestamp;pressure;altitude;pressure_sealevel;temperature;humidity
24746;BME280;12845;52.042;6.838;2023-05-29T00:00:35;-18393.78;;;13.60;100.00
24746;BME280;12845;52.042;6.838;2023-05-29T00:03:00;-18389.13;;;13.42;100.00
24746;BME280;12845;52.042;6.838;2023-05-29T00:05:26;-18388.19;;;13.39;100.00
24746;BME280;12845;52.042;6.838;2023-05-29T00:07:51;-18391.47;;;13.51;100.00
24746;BME280;12845;52.042;6.838;2023-05-29T00:10:17;-18391.75;;;13.52;100.00
24746;BME280;12845;52.042;6.838;2023-05-29T00:12:42;-18390.50;;;13.47;100.00
24746;BME280;12845;52.042;6.838;2023-05-29T00:15:08;-18387.63;;;13.37;100.00
24746;BME280;12845;52.042;6.838;2023-05-29T00:17:34;-18385.44;;;13.28;100.00
24746;BME280;12845;52.042;6.838;2023-05-29T00:20:00;-18384.88;;;13.26;100.00
24746;BME280;12845;52.042;6.838;2023-05-29T00:22:26;-18383.50;;;13.21;100.00
24746;BME280;12845;52.042;6.838;2023-05-29T00:24:52;-18385.84;;;13.30;100.00
24746;BME280;12845;52.042;6.838;2023-05-29T00:27:17;-18385.44;;;13.28;100.00
24746;BME280;12845;52.042;6.838;2023-05-29T00:29:42;-18385.03;;;13.27;100.00
24746;BME280;12845;52.042;6.838;2023-05-29T00:32:08;-18383.91;;;13.23;100.00
24746;BME280;12845;52.042;6.838;2023-05-29T00:34:33;-18383.50;;;13.21;100.00
24746;BME280;12845;52.042;6.838;2023-05-29T00:36:58;-18382.97;;;13.19;100.00
24746;BME280;12845;52.042;6.838;2023-05-29T00:39:23;-18384.88;;;13.26;100.00
24746;BME280;12845;52.042;6.838;2023-05-29T00:41:49;-18381.59;;;13.14;100.00
24746;BME280;12845;52.042;6.838;2023-05-29T00:44:17;-18383.91;;;13.23;100.00
24746;BME280;12845;52.042;6.838;2023-05-29T00:46:43;-18383.22;;;13.20;100.00
24746;BME280;12845;52.042;6.838;2023-05-29T00:49:08;-18380.22;;;13.09;100.00
24746;BME280;12845;52.042;6.838;2023-05-29T00:51:33;-18381.88;;;13.15;100.00
24746;BME280;12845;52.042;6.838;2023-05-29T00:53:59;-18384.88;;;13.26;100.00
24746;BME280;12845;52.042;6.838;2023-05-29T00:56:24;-18380.50;;;13.10;100.00
24746;BME280;12845;52.042;6.838;2023-05-29T00:58:51;-18377.75;;;13.00;100.00
24746;BME280;12845;52.042;6.838;2023-05-29T01:01:19;-18376.66;;;12.96;100.00
24746;BME280;12845;52.042;6.838;2023-05-29T01:03:46;-18377.06;;;12.97;100.00
24746;BME280;12845;52.042;6.838;2023-05-29T01:06:13;-18374.19;;;12.86;100.00
24746;BME280;12845;52.042;6.838;2023-05-29T01:08:39;-18378.31;;;13.02;100.00
24746;BME280;12845;52.042;6.838;2023-05-29T01:11:06;-18377.47;;;12.99;100.00
24746;BME280;12845;52.042;6.838;2023-05-29T01:13:33;-18376.66;;;12.96;100.00
24746;BME280;12845;52.042;6.838;2023-05-29T01:16:12;-18375.16;;;12.90;100.00
24746;BME280;12845;52.042;6.838;2023-05-29T01:18:47;-18372.41;;;12.80;100.00
24746;BME280;12845;52.042;6.838;2023-05-29T01:28:57;-18367.34;;;12.61;100.00
24746;BME280;12845;52.042;6.838;2023-05-29T01:31:26;-18366.78;;;12.59;100.00
24746;BME280;12845;52.042;6.838;2023-05-29T01:33:52;-18364.31;;;12.50;100.00
24746;BME280;12845;52.042;6.838;2023-05-29T01:36:17;-18365.13;;;12.53;100.00
24746;BME280;12845;52.042;6.838;2023-05-29T01:38:42;-18364.59;;;12.51;100.00
24746;BME280;12845;52.042;6.838;2023-05-29T01:41:08;-18361.44;;;12.39;100.00
24746;BME280;12845;52.042;6.838;2023-05-29T01:43:33;-18362.41;;;12.42;100.00
24746;BME280;12845;52.042;6.838;2023-05-29T01:45:59;-18362.66;;;12.44;100.00
24746;BME280;12845;52.042;6.838;2023-05-29T01:48:24;-18360.88;;;12.37;100.00
24746;BME280;12845;52.042;6.838;2023-05-29T01:50:50;-18357.88;;;12.26;100.00
24746;BME280;12845;52.042;6.838;2023-05-29T01:53:15;-18358.97;;;12.30;100.00
24746;BME280;12845;52.042;6.838;2023-05-29T01:55:41;-18358.16;;;12.27;100.00
24746;BME280;12845;52.042;6.838;2023-05-29T01:58:06;-18357.19;;;12.23;100.00
24746;BME280;12845;52.042;6.838;2023-05-29T02:00:32;-18359.38;;;12.31;100.00
24746;BME280;12845;52.042;6.838;2023-05-29T02:02:57;-18359.38;;;12.31;100.00
24746;BME280;12845;52.042;6.838;2023-05-29T02:05:23;-18356.91;;;12.22;100.00
24746;BME280;12845;52.042;6.838;2023-05-29T02:07:48;-18358.00;;;12.26;100.00
24746;BME280;12845;52.042;6.838;2023-05-29T02:10:13;-18356.38;;;12.20;100.00
24746;BME280;12845;52.042;6.838;2023-05-29T02:12:38;-18353.06;;;12.08;100.00
24746;BME280;12845;52.042;6.838;2023-05-29T02:15:04;-18352.25;;;12.05;100.00
24746;BME280;12845;52.042;6.838;2023-05-29T02:17:29;-18354.03;;;12.11;100.00
24746;BME280;12845;52.042;6.838;2023-05-29T02:19:55;-18356.63;;;12.21;100.00
24746;BME280;12845;52.042;6.838;2023-05-29T02:22:21;-18355.53;;;12.17;100.00
24746;BME280;12845;52.042;6.838;2023-05-29T02:24:46;-18355.53;;;12.17;100.00
24746;BME280;12845;52.042;6.838;2023-05-29T02:27:11;-18358.84;;;12.29;100.00
24746;BME280;12845;52.042;6.838;2023-05-29T02:29:36;-18358.28;;;12.27;100.00
24746;BME280;12845;52.042;6.838;2023-05-29T02:32:02;-18357.59;;;12.25;100.00
24746;BME280;12845;52.042;6.838;2023-05-29T02:34:27;-18357.19;;;12.23;100.00
24746;BME280;12845;52.042;6.838;2023-05-29T02:36:52;-18356.50;;;12.21;100.00
24746;BME280;12845;52.042;6.838;2023-05-29T02:39:18;-18358.69;;;12.29;100.00
24746;BME280;12845;52.042;6.838;2023-05-29T02:41:44;-18358.56;;;12.28;100.00
24746;BME280;12845;52.042;6.838;2023-05-29T02:44:09;-18357.72;;;12.25;100.00
24746;BME280;12845;52.042;6.838;2023-05-29T02:46:34;-18357.88;;;12.26;100.00
24746;BME280;12845;52.042;6.838;2023-05-29T02:49:00;-18356.78;;;12.22;100.00
24746;BME280;12845;52.042;6.838;2023-05-29T02:51:25;-18359.09;;;12.30;100.00
24746;BME280;12845;52.042;6.838;2023-05-29T02:53:50;-18358.28;;;12.27;100.00
24746;BME280;12845;52.042;6.838;2023-05-29T02:56:15;-18357.72;;;12.25;100.00
24746;BME280;12845;52.042;6.838;2023-05-29T02:58:41;-18356.09;;;12.19;100.00
24746;BME280;12845;52.042;6.838;2023-05-29T03:01:06;-18359.09;;;12.30;100.00
24746;BME280;12845;52.042;6.838;2023-05-29T03:03:31;-18352.09;;;12.04;100.00
24746;BME280;12845;52.042;6.838;2023-05-29T03:05:57;-18355.69;;;12.17;100.00
24746;BME280;12845;52.042;6.838;2023-05-29T03:08:22;-18357.03;;;12.23;100.00
24746;BME280;12845;52.042;6.838;2023-05-29T03:10:49;-18354.31;;;12.12;100.00
24746;BME280;12845;52.042;6.838;2023-05-29T03:13:14;-18344.56;;;11.76;100.00
24746;BME280;12845;52.042;6.838;2023-05-29T03:15:39;-18345.94;;;11.81;100.00
24746;BME280;12845;52.042;6.838;2023-05-29T03:18:04;-18344.84;;;11.77;100.00
24746;BME280;12845;52.042;6.838;2023-05-29T03:20:30;-18344.69;;;11.77;100.00
24746;BME280;12845;52.042;6.838;2023-05-29T03:22:55;-18343.03;;;11.70;100.00
24746;BME280;12845;52.042;6.838;2023-05-29T03:25:20;-18347.84;;;11.88;100.00
24746;BME280;12845;52.042;6.838;2023-05-29T03:27:46;-18334.81;;;11.40;100.00
24746;BME280;12845;52.042;6.838;2023-05-29T03:30:11;-18334.94;;;11.40;100.00
24746;BME280;12845;52.042;6.838;2023-05-29T03:32:36;-18330.41;;;11.23;100.00
24746;BME280;12845;52.042;6.838;2023-05-29T03:35:01;-18332.06;;;11.29;100.00
24746;BME280;12845;52.042;6.838;2023-05-29T03:37:28;-18332.19;;;11.30;100.00
24746;BME280;12845;52.042;6.838;2023-05-29T03:39:53;-18330.00;;;11.22;100.00
24746;BME280;12845;52.042;6.838;2023-05-29T03:42:19;-18326.97;;;11.11;100.00
24746;BME280;12845;52.042;6.838;2023-05-29T03:44:44;-18329.19;;;11.19;100.00
24746;BME280;12845;52.042;6.838;2023-05-29T03:47:10;-18329.88;;;11.21;100.00
24746;BME280;12845;52.042;6.838;2023-05-29T03:49:35;-18330.28;;;11.23;100.00
24746;BME280;12845;52.042;6.838;2023-05-29T03:52:00;-18331.25;;;11.26;100.00
24746;BME280;12845;52.042;6.838;2023-05-29T03:54:25;-18334.25;;;11.38;100.00
24746;BME280;12845;52.042;6.838;2023-05-29T03:56:51;-18331.09;;;11.26;100.00
24746;BME280;12845;52.042;6.838;2023-05-29T03:59:16;-18332.06;;;11.29;100.00
24746;BME280;12845;52.042;6.838;2023-05-29T04:01:41;-18328.50;;;11.16;100.00
24746;BME280;12845;52.042;6.838;2023-05-29T04:04:07;-18328.78;;;11.17;100.00
24746;BME280;12845;52.042;6.838;2023-05-29T04:06:32;-18332.19;;;11.30;100.00
24746;BME280;12845;52.042;6.838;2023-05-29T04:08:57;-18334.00;;;11.37;100.00
24746;BME280;12845;52.042;6.838;2023-05-29T04:11:22;-18331.94;;;11.29;100.00
24746;BME280;12845;52.042;6.838;2023-05-29T04:13:48;-18335.63;;;11.43;100.00
24746;BME280;12845;52.042;6.838;2023-05-29T04:16:14;-18333.84;;;11.36;100.00
24746;BME280;12845;52.042;6.838;2023-05-29T04:18:39;-18334.81;;;11.40;100.00
24746;BME280;12845;52.042;6.838;2023-05-29T04:21:05;-18336.59;;;11.46;100.00
24746;BME280;12845;52.042;6.838;2023-05-29T04:23:30;-18339.47;;;11.57;100.00
24746;BME280;12845;52.042;6.838;2023-05-29T04:25:55;-18338.09;;;11.52;100.00
24746;BME280;12845;52.042;6.838;2023-05-29T04:28:21;-18340.72;;;11.62;100.00
24746;BME280;12845;52.042;6.838;2023-05-29T04:30:46;-18339.34;;;11.57;100.00
24746;BME280;12845;52.042;6.838;2023-05-29T04:33:11;-18339.19;;;11.56;100.00
24746;BME280;12845;52.042;6.838;2023-05-29T04:35:37;-18341.94;;;11.66;100.00
24746;BME280;12845;52.042;6.838;2023-05-29T04:38:02;-18345.78;;;11.81;100.00
24746;BME280;12845;52.042;6.838;2023-05-29T04:40:29;-18339.75;;;11.58;100.00
24746;BME280;12845;52.042;6.838;2023-05-29T04:42:56;-18340.56;;;11.61;100.00
24746;BME280;12845;52.042;6.838;2023-05-29T04:45:25;-18343.19;;;11.71;100.00
24746;BME280;12845;52.042;6.838;2023-05-29T04:47:50;-18343.19;;;11.71;100.00
24746;BME280;12845;52.042;6.838;2023-05-29T04:50:17;-18345.66;;;11.80;100.00
24746;BME280;12845;52.042;6.838;2023-05-29T04:52:42;-18345.38;;;11.79;100.00
24746;BME280;12845;52.042;6.838;2023-05-29T04:55:08;-18346.47;;;11.83;100.00
24746;BME280;12845;52.042;6.838;2023-05-29T04:57:33;-18349.22;;;11.93;100.00
24746;BME280;12845;52.042;6.838;2023-05-29T04:59:59;-18346.63;;;11.84;100.00
24746;BME280;12845;52.042;6.838;2023-05-29T05:02:24;-18349.78;;;11.95;100.00
24746;BME280;12845;52.042;6.838;2023-05-29T05:04:49;-18350.88;;;12.00;100.00
24746;BME280;12845;52.042;6.838;2023-05-29T05:07:15;-18355.13;;;12.15;100.00
24746;BME280;12845;52.042;6.838;2023-05-29T05:09:41;-18358.28;;;12.27;100.00
24746;BME280;12845;52.042;6.838;2023-05-29T05:12:06;-18360.75;;;12.36;100.00
24746;BME280;12845;52.042;6.838;2023-05-29T05:14:32;-18365.13;;;12.53;100.00
24746;BME280;12845;52.042;6.838;2023-05-29T05:16:57;-18363.50;;;12.47;100.00
24746;BME280;12845;52.042;6.838;2023-05-29T05:19:22;-18368.97;;;12.67;100.00
24746;BME280;12845;52.042;6.838;2023-05-29T05:21:47;-18364.03;;;12.49;100.00
24746;BME280;12845;52.042;6.838;2023-05-29T05:24:12;-18368.97;;;12.67;100.00
24746;BME280;12845;52.042;6.838;2023-05-29T05:26:38;-18371.88;;;12.78;100.00
24746;BME280;12845;52.042;6.838;2023-05-29T05:29:03;-18373.91;;;12.85;100.00
24746;BME280;12845;52.042;6.838;2023-05-29T05:31:28;-18372.69;;;12.81;100.00
24746;BME280;12845;52.042;6.838;2023-05-29T05:33:53;-18375.84;;;12.93;100.00
24746;BME280;12845;52.042;6.838;2023-05-29T05:36:19;-18374.31;;;12.87;100.00
24746;BME280;12845;52.042;6.838;2023-05-29T05:38:44;-18373.50;;;12.84;100.00
24746;BME280;12845;52.042;6.838;2023-05-29T05:41:10;-18372.28;;;12.79;100.00
24746;BME280;12845;52.042;6.838;2023-05-29T05:43:36;-18372.00;;;12.78;100.00
24746;BME280;12845;52.042;6.838;2023-05-29T05:46:01;-18373.78;;;12.85;100.00
24746;BME280;12845;52.042;6.838;2023-05-29T05:48:26;-18376.53;;;12.95;100.00
24746;BME280;12845;52.042;6.838;2023-05-29T05:50:51;-18375.97;;;12.93;100.00
24746;BME280;12845;52.042;6.838;2023-05-29T05:53:17;-18378.84;;;13.04;100.00
24746;BME280;12845;52.042;6.838;2023-05-29T05:55:42;-18383.78;;;13.22;100.00
24746;BME280;12845;52.042;6.838;2023-05-29T05:58:08;-18384.06;;;13.23;100.00
24746;BME280;12845;52.042;6.838;2023-05-29T06:00:33;-18384.19;;;13.24;100.00
24746;BME280;12845;52.042;6.838;2023-05-29T06:02:58;-18385.56;;;13.29;100.00
24746;BME280;12845;52.042;6.838;2023-05-29T06:05:25;-18381.31;;;13.13;100.00
24746;BME280;12845;52.042;6.838;2023-05-29T06:07:50;-18372.41;;;12.80;100.00
24746;BME280;12845;52.042;6.838;2023-05-29T06:10:16;-18381.47;;;13.14;100.00
24746;BME280;12845;52.042;6.838;2023-05-29T06:12:41;-18381.47;;;13.14;100.00
24746;BME280;12845;52.042;6.838;2023-05-29T06:15:06;-18374.59;;;12.88;100.00
24746;BME280;12845;52.042;6.838;2023-05-29T06:17:32;-18378.72;;;13.03;100.00
24746;BME280;12845;52.042;6.838;2023-05-29T06:19:57;-18384.88;;;13.26;100.00
24746;BME280;12845;52.042;6.838;2023-05-29T06:22:22;-18384.88;;;13.26;100.00
24746;BME280;12845;52.042;6.838;2023-05-29T06:24:47;-18391.06;;;13.49;100.00
24746;BME280;12845;52.042;6.838;2023-05-29T06:27:12;-18384.34;;;13.24;100.00
24746;BME280;12845;52.042;6.838;2023-05-29T06:29:38;-18382.28;;;13.17;100.00
24746;BME280;12845;52.042;6.838;2023-05-29T06:32:03;-18382.41;;;13.17;100.00
24746;BME280;12845;52.042;6.838;2023-05-29T06:34:28;-18385.56;;;13.29;100.00
24746;BME280;12845;52.042;6.838;2023-05-29T06:36:53;-18385.97;;;13.30;100.00
24746;BME280;12845;52.042;6.838;2023-05-29T06:39:19;-18384.19;;;13.24;100.00
24746;BME280;12845;52.042;6.838;2023-05-29T06:41:45;-18382.28;;;13.17;100.00
24746;BME280;12845;52.042;6.838;2023-05-29T06:44:10;-18382.81;;;13.19;100.00
24746;BME280;12845;52.042;6.838;2023-05-29T06:46:35;-18386.53;;;13.32;100.00
24746;BME280;12845;52.042;6.838;2023-05-29T06:49:01;-18385.97;;;13.30;100.00
24746;BME280;12845;52.042;6.838;2023-05-29T06:51:26;-18388.59;;;13.40;100.00
24746;BME280;12845;52.042;6.838;2023-05-29T06:53:51;-18393.78;;;13.60;100.00
24746;BME280;12845;52.042;6.838;2023-05-29T06:56:16;-18392.84;;;13.56;100.00
24746;BME280;12845;52.042;6.838;2023-05-29T06:58:42;-18393.66;;;13.59;100.00
24746;BME280;12845;52.042;6.838;2023-05-29T07:01:07;-18397.34;;;13.73;100.00
24746;BME280;12845;52.042;6.838;2023-05-29T07:03:32;-18398.88;;;13.79;100.00
24746;BME280;12845;52.042;6.838;2023-05-29T07:05:58;-18399.13;;;13.80;100.00
24746;BME280;12845;52.042;6.838;2023-05-29T07:08:24;-18400.09;;;13.83;100.00
24746;BME280;12845;52.042;6.838;2023-05-29T07:10:49;-18401.75;;;13.89;100.00
24746;BME280;12845;52.042;6.838;2023-05-29T07:13:15;-18404.22;;;13.98;100.00
24746;BME280;12845;52.042;6.838;2023-05-29T07:15:41;-18404.06;;;13.98;100.00
24746;BME280;12845;52.042;6.838;2023-05-29T07:18:06;-18403.66;;;13.96;100.00
24746;BME280;12845;52.042;6.838;2023-05-29T07:20:31;-18408.72;;;14.15;100.00
24746;BME280;12845;52.042;6.838;2023-05-29T07:22:57;-18409.00;;;14.16;100.00
24746;BME280;12845;52.042;6.838;2023-05-29T07:25:22;-18410.91;;;14.23;100.00
24746;BME280;12845;52.042;6.838;2023-05-29T07:27:47;-18413.09;;;14.32;100.00
24746;BME280;12845;52.042;6.838;2023-05-29T07:30:12;-18415.03;;;14.39;100.00
24746;BME280;12845;52.042;6.838;2023-05-29T07:32:38;-18415.84;;;14.42;100.00
24746;BME280;12845;52.042;6.838;2023-05-29T07:35:03;-18417.22;;;14.47;100.00
24746;BME280;12845;52.042;6.838;2023-05-29T07:37:28;-18416.13;;;14.43;100.00
24746;BME280;12845;52.042;6.838;2023-05-29T07:39:55;-18406.66;;;14.08;100.00
24746;BME280;12845;52.042;6.838;2023-05-29T07:42:20;-18409.81;;;14.19;100.00
24746;BME280;12845;52.042;6.838;2023-05-29T07:44:45;-18412.28;;;14.29;100.00
24746;BME280;12845;52.042;6.838;2023-05-29T07:47:11;-18414.19;;;14.36;100.00
24746;BME280;12845;52.042;6.838;2023-05-29T07:49:36;-18420.50;;;14.59;100.00
24746;BME280;12845;52.042;6.838;2023-05-29T07:52:04;-18414.47;;;14.37;100.00
24746;BME280;12845;52.042;6.838;2023-05-29T07:54:31;-18422.00;;;14.65;100.00
24746;BME280;12845;52.042;6.838;2023-05-29T07:56:57;-18424.75;;;14.75;100.00
24746;BME280;12845;52.042;6.838;2023-05-29T07:59:23;-18426.81;;;14.83;100.00
24746;BME280;12845;52.042;6.838;2023-05-29T08:01:48;-18421.59;;;14.63;100.00
24746;BME280;12845;52.042;6.838;2023-05-29T08:04:13;-18428.56;;;14.89;100.00
24746;BME280;12845;52.042;6.838;2023-05-29T08:06:39;-18424.34;;;14.74;100.00
24746;BME280;12845;52.042;6.838;2023-05-29T08:09:07;-18428.72;;;14.90;100.00
24746;BME280;12845;52.042;6.838;2023-05-29T08:11:32;-18429.81;;;14.94;100.00
24746;BME280;12845;52.042;6.838;2023-05-29T08:13:57;-18435.00;;;15.14;100.00
24746;BME280;12845;52.042;6.838;2023-05-29T08:16:23;-18435.97;;;15.17;100.00
24746;BME280;12845;52.042;6.838;2023-05-29T08:18:48;-18433.09;;;15.06;100.00
24746;BME280;12845;52.042;6.838;2023-05-29T08:21:13;-18439.78;;;15.31;100.00
24746;BME280;12845;52.042;6.838;2023-05-29T08:23:38;-18442.53;;;15.42;100.00
24746;BME280;12845;52.042;6.838;2023-05-29T08:26:03;-18452.13;;;15.77;98.56
24746;BME280;12845;52.042;6.838;2023-05-29T08:28:29;-18454.97;;;15.88;100.00
24746;BME280;12845;52.042;6.838;2023-05-29T08:30:54;-18454.97;;;15.88;99.94
24746;BME280;12845;52.042;6.838;2023-05-29T08:33:19;-18456.63;;;15.94;97.29
24746;BME280;12845;52.042;6.838;2023-05-29T08:35:44;-18459.91;;;16.07;94.15
24746;BME280;12845;52.042;6.838;2023-05-29T08:38:10;-18457.56;;;15.98;96.07
24746;BME280;12845;52.042;6.838;2023-05-29T08:40:35;-18462.63;;;16.17;92.76
24746;BME280;12845;52.042;6.838;2023-05-29T08:43:02;-18462.38;;;16.16;93.93
24746;BME280;12845;52.042;6.838;2023-05-29T08:45:29;-18468.94;;;16.40;91.05
24746;BME280;12845;52.042;6.838;2023-05-29T08:47:58;-18473.28;;;16.57;91.77
24746;BME280;12845;52.042;6.838;2023-05-29T08:50:25;-18479.31;;;16.79;91.92
24746;BME280;12845;52.042;6.838;2023-05-29T08:52:51;-18485.19;;;17.01;90.33
24746;BME280;12845;52.042;6.838;2023-05-29T08:55:16;-18489.56;;;17.18;88.36
24746;BME280;12845;52.042;6.838;2023-05-29T08:57:42;-18488.72;;;17.14;81.57
24746;BME280;12845;52.042;6.838;2023-05-29T09:00:08;-18486.97;;;17.08;84.85
24746;BME280;12845;52.042;6.838;2023-05-29T09:02:37;-18489.41;;;17.17;78.35
24746;BME280;12845;52.042;6.838;2023-05-29T09:05:03;-18487.50;;;17.10;81.62
24746;BME280;12845;52.042;6.838;2023-05-29T09:07:29;-18484.09;;;16.97;85.06
24746;BME280;12845;52.042;6.838;2023-05-29T09:09:54;-18486.41;;;17.06;84.18
24746;BME280;12845;52.042;6.838;2023-05-29T09:12:20;-18492.00;;;17.27;80.01
24746;BME280;12845;52.042;6.838;2023-05-29T09:14:46;-18490.78;;;17.22;78.94
24746;BME280;12845;52.042;6.838;2023-05-29T09:17:12;-18489.00;;;17.16;77.46
24746;BME280;12845;52.042;6.838;2023-05-29T09:19:38;-18492.56;;;17.29;80.39
24746;BME280;12845;52.042;6.838;2023-05-29T09:22:09;-18495.16;;;17.39;76.69
24746;BME280;12845;52.042;6.838;2023-05-29T09:24:36;-18491.47;;;17.25;81.48
24746;BME280;12845;52.042;6.838;2023-05-29T09:27:01;-18491.59;;;17.25;82.25
24746;BME280;12845;52.042;6.838;2023-05-29T09:29:30;-18489.97;;;17.19;79.09
24746;BME280;12845;52.042;6.838;2023-05-29T09:31:56;-18497.34;;;17.47;76.74
24746;BME280;12845;52.042;6.838;2023-05-29T09:34:22;-18501.69;;;17.63;75.92
24746;BME280;12845;52.042;6.838;2023-05-29T09:36:48;-18498.84;;;17.52;71.75
24746;BME280;12845;52.042;6.838;2023-05-29T09:39:13;-18500.06;;;17.57;76.11
24746;BME280;12845;52.042;6.838;2023-05-29T09:41:43;-18502.94;;;17.68;73.16
24746;BME280;12845;52.042;6.838;2023-05-29T09:44:10;-18508.66;;;17.89;69.42
24746;BME280;12845;52.042;6.838;2023-05-29T09:46:38;-18503.75;;;17.71;72.69
24746;BME280;12845;52.042;6.838;2023-05-29T09:49:07;-18502.50;;;17.66;73.65
24746;BME280;12845;52.042;6.838;2023-05-29T09:51:35;-18507.03;;;17.83;73.05
24746;BME280;12845;52.042;6.838;2023-05-29T09:54:12;-18510.56;;;17.96;69.09
24746;BME280;12845;52.042;6.838;2023-05-29T09:56:37;-18513.44;;;18.07;69.47
24746;BME280;12845;52.042;6.838;2023-05-29T09:59:03;-18513.03;;;18.06;68.07
24746;BME280;12845;52.042;6.838;2023-05-29T10:01:28;-18514.53;;;18.11;70.79
24746;BME280;12845;52.042;6.838;2023-05-29T10:03:53;-18518.63;;;18.26;68.93
24746;BME280;12845;52.042;6.838;2023-05-29T10:06:19;-18521.63;;;18.38;67.06
24746;BME280;12845;52.042;6.838;2023-05-29T10:08:45;-18525.56;;;18.53;68.43
24746;BME280;12845;52.042;6.838;2023-05-29T10:11:14;-18530.88;;;18.72;65.54
24746;BME280;12845;52.042;6.838;2023-05-29T10:13:42;-18530.06;;;18.69;61.58
24746;BME280;12845;52.042;6.838;2023-05-29T10:16:13;-18526.13;;;18.55;63.73
24746;BME280;12845;52.042;6.838;2023-05-29T10:18:39;-18533.06;;;18.81;65.90
24746;BME280;12845;52.042;6.838;2023-05-29T10:21:07;-18533.06;;;18.81;63.40
24746;BME280;12845;52.042;6.838;2023-05-29T10:23:32;-18540.84;;;19.10;63.69
24746;BME280;12845;52.042;6.838;2023-05-29T10:25:59;-18539.63;;;19.05;59.98
24746;BME280;12845;52.042;6.838;2023-05-29T10:28:29;-18544.66;;;19.24;59.69
24746;BME280;12845;52.042;6.838;2023-05-29T10:31:05;-18537.44;;;18.97;57.92
24746;BME280;12845;52.042;6.838;2023-05-29T10:33:37;-18528.84;;;18.65;62.51
24746;BME280;12845;52.042;6.838;2023-05-29T10:38:33;-18530.06;;;18.69;58.60
24746;BME280;12845;52.042;6.838;2023-05-29T10:43:42;-18542.75;;;19.17;61.28
24746;BME280;12845;52.042;6.838;2023-05-29T10:46:09;-18545.06;;;19.26;61.76
24746;BME280;12845;52.042;6.838;2023-05-29T10:48:38;-18546.44;;;19.31;58.89
24746;BME280;12845;52.042;6.838;2023-05-29T10:51:05;-18543.16;;;19.19;58.51
24746;BME280;12845;52.042;6.838;2023-05-29T10:53:31;-18535.25;;;18.89;61.78
24746;BME280;12845;52.042;6.838;2023-05-29T10:55:56;-18543.16;;;19.19;58.57
24746;BME280;12845;52.042;6.838;2023-05-29T10:58:24;-18546.97;;;19.33;56.95
24746;BME280;12845;52.042;6.838;2023-05-29T11:00:50;-18544.25;;;19.23;56.31
24746;BME280;12845;52.042;6.838;2023-05-29T11:03:19;-18541.25;;;19.11;55.99
24746;BME280;12845;52.042;6.838;2023-05-29T11:06:04;-18540.56;;;19.09;54.82
24746;BME280;12845;52.042;6.838;2023-05-29T11:11:15;-18546.16;;;19.30;55.70
24746;BME280;12845;52.042;6.838;2023-05-29T11:13:41;-18551.06;;;19.48;57.26
24746;BME280;12845;52.042;6.838;2023-05-29T11:18:38;-18551.59;;;19.50;55.56
24746;BME280;12845;52.042;6.838;2023-05-29T11:21:04;-18561.97;;;19.89;56.91
24746;BME280;12845;52.042;6.838;2023-05-29T11:23:31;-18563.31;;;19.94;53.93
24746;BME280;12845;52.042;6.838;2023-05-29T11:25:57;-18561.41;;;19.87;53.60
24746;BME280;12845;52.042;6.838;2023-05-29T11:28:22;-18565.63;;;20.03;55.10
24746;BME280;12845;52.042;6.838;2023-05-29T11:30:47;-18568.63;;;20.14;53.24
24746;BME280;12845;52.042;6.838;2023-05-29T11:33:24;-18572.59;;;20.29;55.94
24746;BME280;12845;52.042;6.838;2023-05-29T11:35:52;-18574.22;;;20.35;52.67
24746;BME280;12845;52.042;6.838;2023-05-29T11:38:20;-18566.03;;;20.04;54.39
24746;BME280;12845;52.042;6.838;2023-05-29T11:40:45;-18556.94;;;19.70;51.17
24746;BME280;12845;52.042;6.838;2023-05-29T11:43:12;-18559.66;;;19.80;49.91
24746;BME280;12845;52.042;6.838;2023-05-29T11:45:37;-18564.69;;;19.99;50.09
24746;BME280;12845;52.042;6.838;2023-05-29T11:48:03;-18573.53;;;20.33;50.35
24746;BME280;12845;52.042;6.838;2023-05-29T11:50:29;-18567.97;;;20.12;47.88
24746;BME280;12845;52.042;6.838;2023-05-29T11:52:55;-18567.97;;;20.12;47.49
24746;BME280;12845;52.042;6.838;2023-05-29T11:55:21;-18574.91;;;20.38;47.53
24746;BME280;12845;52.042;6.838;2023-05-29T11:57:47;-18580.47;;;20.59;47.48
24746;BME280;12845;52.042;6.838;2023-05-29T12:00:13;-18583.88;;;20.71;44.89
24746;BME280;12845;52.042;6.838;2023-05-29T12:02:38;-18582.38;;;20.66;45.66
24746;BME280;12845;52.042;6.838;2023-05-29T12:05:04;-18576.66;;;20.44;43.59
24746;BME280;12845;52.042;6.838;2023-05-29T12:07:30;-18581.03;;;20.61;43.55
24746;BME280;12845;52.042;6.838;2023-05-29T12:09:55;-18582.94;;;20.68;42.71
24746;BME280;12845;52.042;6.838;2023-05-29T12:12:23;-18584.41;;;20.73;43.80
24746;BME280;12845;52.042;6.838;2023-05-29T12:14:51;-18574.63;;;20.37;43.38
24746;BME280;12845;52.042;6.838;2023-05-29T12:17:17;-18575.31;;;20.39;44.45
24746;BME280;12845;52.042;6.838;2023-05-29T12:19:43;-18573.66;;;20.33;44.75
24746;BME280;12845;52.042;6.838;2023-05-29T12:22:08;-18569.03;;;20.16;45.96
24746;BME280;12845;52.042;6.838;2023-05-29T12:24:34;-18567.00;;;20.08;44.16
24746;BME280;12845;52.042;6.838;2023-05-29T12:26:59;-18565.09;;;20.01;45.09
24746;BME280;12845;52.042;6.838;2023-05-29T12:29:29;-18566.03;;;20.04;46.03
24746;BME280;12845;52.042;6.838;2023-05-29T12:31:58;-18569.19;;;20.16;46.11
24746;BME280;12845;52.042;6.838;2023-05-29T12:34:23;-18559.09;;;19.78;45.11
24746;BME280;12845;52.042;6.838;2023-05-29T12:36:48;-18564.81;;;20.00;45.24
24746;BME280;12845;52.042;6.838;2023-05-29T12:39:13;-18572.84;;;20.30;46.05
24746;BME280;12845;52.042;6.838;2023-05-29T12:41:39;-18574.09;;;20.35;44.96
24746;BME280;12845;52.042;6.838;2023-05-29T12:44:05;-18576.53;;;20.44;45.97
24746;BME280;12845;52.042;6.838;2023-05-29T12:46:40;-18583.19;;;20.69;44.95
24746;BME280;12845;52.042;6.838;2023-05-29T12:49:14;-18589.03;;;20.91;43.56
24746;BME280;12845;52.042;6.838;2023-05-29T12:51:42;-18579.25;;;20.54;43.57
24746;BME280;12845;52.042;6.838;2023-05-29T12:54:09;-18583.75;;;20.71;44.46